sensor_id;sensor_type;location;lat;lon;timestamp;temperature;humidity
20829;DHT22;10575;50.124;8.582;2024-03-22T00:00:04;11.00;99.90
20829;DHT22;10575;50.124;8.582;2024-03-22T00:02:29;10.90;99.90
20829;DHT22;10575;50.124;8.582;2024-03-22T00:04:55;10.90;99.90
20829;DHT22;10575;50.124;8.582;2024-03-22T00:07:20;10.80;99.90
20829;DHT22;10575;50.124;8.582;2024-03-22T00:09:46;10.70;99.90
20829;DHT22;10575;50.124;8.582;2024-03-22T00:12:11;10.70;99.90
20829;DHT22;10575;50.124;8.582;2024-03-22T00:14:37;10.70;99.90
20829;DHT22;10575;50.124;8.582;2024-03-22T00:17:02;10.70;99.90
20829;DHT22;10575;50.124;8.582;2024-03-22T00:19:28;10.70;99.90
20829;DHT22;10575;50.124;8.582;2024-03-22T00:21:53;10.70;99.90
20829;DHT22;10575;50.124;8.582;2024-03-22T00:24:19;10.70;99.90
20829;DHT22;10575;50.124;8.582;2024-03-22T00:26:44;10.60;99.90
20829;DHT22;10575;50.124;8.582;2024-03-22T00:29:10;10.50;99.90
20829;DHT22;10575;50.124;8.582;2024-03-22T00:31:35;10.50;99.90
20829;DHT22;10575;50.124;8.582;2024-03-22T00:34:00;10.50;99.90
20829;DHT22;10575;50.124;8.582;2024-03-22T00:36:26;10.50;99.90
20829;DHT22;10575;50.124;8.582;2024-03-22T00:38:51;10.30;99.90
20829;DHT22;10575;50.124;8.582;2024-03-22T00:41:17;10.30;99.90
20829;DHT22;10575;50.124;8.582;2024-03-22T00:43:43;10.30;99.90
20829;DHT22;10575;50.124;8.582;2024-03-22T00:46:08;10.40;99.90
20829;DHT22;10575;50.124;8.582;2024-03-22T00:48:34;10.40;99.90
20829;DHT22;10575;50.124;8.582;2024-03-22T00:51:01;10.40;99.90
20829;DHT22;10575;50.124;8.582;2024-03-22T00:53:26;10.50;99.90
20829;DHT22;10575;50.124;8.582;2024-03-22T00:55:52;10.50;99.90
20829;DHT22;10575;50.124;8.582;2024-03-22T00:58:18;10.50;99.90
20829;DHT22;10575;50.124;8.582;2024-03-22T01:00:44;10.60;99.90
20829;DHT22;10575;50.124;8.582;2024-03-22T01:03:10;10.50;99.90
20829;DHT22;10575;50.124;8.582;2024-03-22T01:05:35;10.50;99.90
20829;DHT22;10575;50.124;8.582;2024-03-22T01:08:01;10.50;99.90
20829;DHT22;10575;50.124;8.582;2024-03-22T01:10:26;10.50;99.90
20829;DHT22;10575;50.124;8.582;2024-03-22T01:12:52;10.50;99.90
20829;DHT22;10575;50.124;8.582;2024-03-22T01:15:18;10.40;99.90
20829;DHT22;10575;50.124;8.582;2024-03-22T01:17:43;10.20;99.90
20829;DHT22;10575;50.124;8.582;2024-03-22T01:20:09;10.10;99.90
20829;DHT22;10575;50.124;8.582;2024-03-22T01:22:35;10.10;99.90
20829;DHT22;10575;50.124;8.582;2024-03-22T01:25:01;10.00;99.90
20829;DHT22;10575;50.124;8.582;2024-03-22T01:27:27;10.00;99.90
20829;DHT22;10575;50.124;8.582;2024-03-22T01:29:55;10.00;99.90
20829;DHT22;10575;50.124;8.582;2024-03-22T01:32:21;10.00;99.90
20829;DHT22;10575;50.124;8.582;2024-03-22T01:34:47;10.00;99.90
20829;DHT22;10575;50.124;8.582;2024-03-22T01:37:12;10.10;99.90
20829;DHT22;10575;50.124;8.582;2024-03-22T01:39:38;10.00;99.90
20829;DHT22;10575;50.124;8.582;2024-03-22T01:42:03;9.90;99.90
20829;DHT22;10575;50.124;8.582;2024-03-22T01:44:31;9.80;99.90
20829;DHT22;10575;50.124;8.582;2024-03-22T01:46:58;9.80;99.90
20829;DHT22;10575;50.124;8.582;2024-03-22T01:49:25;9.90;99.90
20829;DHT22;10575;50.124;8.582;2024-03-22T01:51:51;9.90;99.90
20829;DHT22;10575;50.124;8.582;2024-03-22T01:54:17;9.90;99.90
20829;DHT22;10575;50.124;8.582;2024-03-22T01:56:44;9.80;99.90
20829;DHT22;10575;50.124;8.582;2024-03-22T01:59:10;9.70;99.90
20829;DHT22;10575;50.124;8.582;2024-03-22T02:01:36;9.50;99.90
20829;DHT22;10575;50.124;8.582;2024-03-22T02:04:01;9.30;99.90
20829;DHT22;10575;50.124;8.582;2024-03-22T02:06:27;9.10;99.90
20829;DHT22;10575;50.124;8.582;2024-03-22T02:08:53;8.90;99.90
20829;DHT22;10575;50.124;8.582;2024-03-22T02:11:19;8.90;99.90
20829;DHT22;10575;50.124;8.582;2024-03-22T02:13:45;9.00;99.90
20829;DHT22;10575;50.124;8.582;2024-03-22T02:16:10;9.10;99.90
20829;DHT22;10575;50.124;8.582;2024-03-22T02:18:36;9.20;99.90
20829;DHT22;10575;50.124;8.582;2024-03-22T02:21:02;9.20;99.90
20829;DHT22;10575;50.124;8.582;2024-03-22T02:23:38;9.20;99.90
20829;DHT22;10575;50.124;8.582;2024-03-22T02:26:05;9.20;99.90
20829;DHT22;10575;50.124;8.582;2024-03-22T02:28:31;9.20;99.90
20829;DHT22;10575;50.124;8.582;2024-03-22T02:30:58;9.20;99.90
20829;DHT22;10575;50.124;8.582;2024-03-22T02:33:23;9.30;99.90
20829;DHT22;10575;50.124;8.582;2024-03-22T02:35:50;9.30;99.90
20829;DHT22;10575;50.124;8.582;2024-03-22T02:38:16;9.30;99.90
20829;DHT22;10575;50.124;8.582;2024-03-22T02:40:46;9.30;99.90
20829;DHT22;10575;50.124;8.582;2024-03-22T02:43:12;9.20;99.90
20829;DHT22;10575;50.124;8.582;2024-03-22T02:45:38;9.30;99.90
20829;DHT22;10575;50.124;8.582;2024-03-22T02:48:04;9.30;99.90
20829;DHT22;10575;50.124;8.582;2024-03-22T02:50:34;9.30;99.90
20829;DHT22;10575;50.124;8.582;2024-03-22T02:53:00;9.30;99.90
20829;DHT22;10575;50.124;8.582;2024-03-22T02:55:25;9.30;99.90
20829;DHT22;10575;50.124;8.582;2024-03-22T02:57:51;9.30;99.90
20829;DHT22;10575;50.124;8.582;2024-03-22T03:00:17;9.30;99.90
20829;DHT22;10575;50.124;8.582;2024-03-22T03:02:43;9.30;99.90
20829;DHT22;10575;50.124;8.582;2024-03-22T03:05:09;9.30;99.90
20829;DHT22;10575;50.124;8.582;2024-03-22T03:07:35;9.30;99.90
20829;DHT22;10575;50.124;8.582;2024-03-22T03:10:00;9.30;99.90
20829;DHT22;10575;50.124;8.582;2024-03-22T03:12:26;9.30;99.90
20829;DHT22;10575;50.124;8.582;2024-03-22T03:14:51;9.40;99.90
20829;DHT22;10575;50.124;8.582;2024-03-22T03:17:17;9.40;99.90
20829;DHT22;10575;50.124;8.582;2024-03-22T03:19:43;9.50;99.90
20829;DHT22;10575;50.124;8.582;2024-03-22T03:22:09;9.40;99.90
20829;DHT22;10575;50.124;8.582;2024-03-22T03:24:34;9.40;99.90
20829;DHT22;10575;50.124;8.582;2024-03-22T03:27:00;9.30;99.90
20829;DHT22;10575;50.124;8.582;2024-03-22T03:29:25;9.40;99.90
20829;DHT22;10575;50.124;8.582;2024-03-22T03:31:51;9.40;99.90
20829;DHT22;10575;50.124;8.582;2024-03-22T03:34:16;9.40;99.90
20829;DHT22;10575;50.124;8.582;2024-03-22T03:36:42;9.40;99.90
20829;DHT22;10575;50.124;8.582;2024-03-22T03:39:07;9.40;99.90
20829;DHT22;10575;50.124;8.582;2024-03-22T03:41:33;9.30;99.90
20829;DHT22;10575;50.124;8.582;2024-03-22T03:43:58;9.20;99.90
20829;DHT22;10575;50.124;8.582;2024-03-22T03:46:24;9.10;99.90
20829;DHT22;10575;50.124;8.582;2024-03-22T03:48:49;9.00;99.90
20829;DHT22;10575;50.124;8.582;2024-03-22T03:51:15;8.90;99.90
20829;DHT22;10575;50.124;8.582;2024-03-22T03:53:40;8.90;99.90
20829;DHT22;10575;50.124;8.582;2024-03-22T03:56:06;9.00;99.90
20829;DHT22;10575;50.124;8.582;2024-03-22T03:58:31;9.00;99.90
20829;DHT22;10575;50.124;8.582;2024-03-22T04:00:57;9.00;99.90
20829;DHT22;10575;50.124;8.582;2024-03-22T04:03:24;9.00;99.90
20829;DHT22;10575;50.124;8.582;2024-03-22T04:05:59;9.00;99.90
20829;DHT22;10575;50.124;8.582;2024-03-22T04:08:28;9.00;99.90
20829;DHT22;10575;50.124;8.582;2024-03-22T04:10:56;9.00;99.90
20829;DHT22;10575;50.124;8.582;2024-03-22T04:13:26;9.10;99.90
20829;DHT22;10575;50.124;8.582;2024-03-22T04:15:52;9.20;99.90
20829;DHT22;10575;50.124;8.582;2024-03-22T04:18:18;9.20;99.90
20829;DHT22;10575;50.124;8.582;2024-03-22T04:20:56;9.30;99.90
20829;DHT22;10575;50.124;8.582;2024-03-22T04:23:23;9.30;99.90
20829;DHT22;10575;50.124;8.582;2024-03-22T04:25:56;9.30;99.90
20829;DHT22;10575;50.124;8.582;2024-03-22T04:28:22;9.40;99.90
20829;DHT22;10575;50.124;8.582;2024-03-22T04:33:21;9.40;99.90
20829;DHT22;10575;50.124;8.582;2024-03-22T04:35:46;9.40;99.90
20829;DHT22;10575;50.124;8.582;2024-03-22T04:38:12;9.40;99.90
20829;DHT22;10575;50.124;8.582;2024-03-22T04:40:39;9.40;99.90
20829;DHT22;10575;50.124;8.582;2024-03-22T04:43:05;9.40;99.90
20829;DHT22;10575;50.124;8.582;2024-03-22T04:45:31;9.50;99.90
20829;DHT22;10575;50.124;8.582;2024-03-22T04:47:56;9.50;99.90
20829;DHT22;10575;50.124;8.582;2024-03-22T04:50:22;9.40;99.90
20829;DHT22;10575;50.124;8.582;2024-03-22T04:52:47;9.40;99.90
20829;DHT22;10575;50.124;8.582;2024-03-22T04:55:13;9.50;99.90
20829;DHT22;10575;50.124;8.582;2024-03-22T04:57:38;9.60;99.90
20829;DHT22;10575;50.124;8.582;2024-03-22T05:00:04;9.60;99.90
20829;DHT22;10575;50.124;8.582;2024-03-22T05:02:32;9.50;99.90
20829;DHT22;10575;50.124;8.582;2024-03-22T05:04:58;9.50;99.90
20829;DHT22;10575;50.124;8.582;2024-03-22T05:07:23;9.50;99.90
20829;DHT22;10575;50.124;8.582;2024-03-22T05:09:49;9.50;99.90
20829;DHT22;10575;50.124;8.582;2024-03-22T05:12:14;9.50;99.90
20829;DHT22;10575;50.124;8.582;2024-03-22T05:14:40;9.60;99.90
20829;DHT22;10575;50.124;8.582;2024-03-22T05:17:05;9.70;99.90
20829;DHT22;10575;50.124;8.582;2024-03-22T05:19:31;9.70;99.90
20829;DHT22;10575;50.124;8.582;2024-03-22T05:21:56;9.70;99.90
20829;DHT22;10575;50.124;8.582;2024-03-22T05:24:22;9.80;99.90
20829;DHT22;10575;50.124;8.582;2024-03-22T05:26:47;9.80;99.90
20829;DHT22;10575;50.124;8.582;2024-03-22T05:29:13;9.80;99.90
20829;DHT22;10575;50.124;8.582;2024-03-22T05:31:48;9.70;99.90
20829;DHT22;10575;50.124;8.582;2024-03-22T05:34:14;9.70;99.90
20829;DHT22;10575;50.124;8.582;2024-03-22T05:36:40;9.70;99.90
20829;DHT22;10575;50.124;8.582;2024-03-22T05:39:05;9.70;99.90
20829;DHT22;10575;50.124;8.582;2024-03-22T05:41:31;9.90;99.90
20829;DHT22;10575;50.124;8.582;2024-03-22T05:43:57;9.90;99.90
20829;DHT22;10575;50.124;8.582;2024-03-22T05:46:22;10.00;99.90
20829;DHT22;10575;50.124;8.582;2024-03-22T05:48:47;10.10;99.90
20829;DHT22;10575;50.124;8.582;2024-03-22T05:51:16;10.10;99.90
20829;DHT22;10575;50.124;8.582;2024-03-22T05:53:41;10.10;99.90
20829;DHT22;10575;50.124;8.582;2024-03-22T05:56:07;10.10;99.90
20829;DHT22;10575;50.124;8.582;2024-03-22T05:58:34;10.10;99.90
20829;DHT22;10575;50.124;8.582;2024-03-22T06:00:59;10.20;99.90
20829;DHT22;10575;50.124;8.582;2024-03-22T06:03:25;10.30;99.90
20829;DHT22;10575;50.124;8.582;2024-03-22T06:05:50;10.40;99.90
20829;DHT22;10575;50.124;8.582;2024-03-22T06:08:20;10.60;99.90
20829;DHT22;10575;50.124;8.582;2024-03-22T06:10:46;10.70;99.90
20829;DHT22;10575;50.124;8.582;2024-03-22T06:13:11;10.70;99.90
20829;DHT22;10575;50.124;8.582;2024-03-22T06:15:37;10.80;99.90
20829;DHT22;10575;50.124;8.582;2024-03-22T06:18:03;10.80;99.90
20829;DHT22;10575;50.124;8.582;2024-03-22T06:20:28;10.90;99.90
20829;DHT22;10575;50.124;8.582;2024-03-22T06:22:54;10.90;99.90
20829;DHT22;10575;50.124;8.582;2024-03-22T06:25:19;11.00;99.90
20829;DHT22;10575;50.124;8.582;2024-03-22T06:27:45;11.00;99.90
20829;DHT22;10575;50.124;8.582;2024-03-22T06:30:11;11.00;99.90
20829;DHT22;10575;50.124;8.582;2024-03-22T06:32:36;11.10;99.90
20829;DHT22;10575;50.124;8.582;2024-03-22T06:35:02;11.20;99.90
20829;DHT22;10575;50.124;8.582;2024-03-22T06:37:31;11.20;99.90
20829;DHT22;10575;50.124;8.582;2024-03-22T06:39:56;11.20;99.90
20829;DHT22;10575;50.124;8.582;2024-03-22T06:42:23;11.20;99.90
20829;DHT22;10575;50.124;8.582;2024-03-22T06:44:49;11.30;99.90
20829;DHT22;10575;50.124;8.582;2024-03-22T06:47:17;11.30;99.90
20829;DHT22;10575;50.124;8.582;2024-03-22T06:49:42;11.30;99.90
20829;DHT22;10575;50.124;8.582;2024-03-22T06:52:08;11.30;99.90
20829;DHT22;10575;50.124;8.582;2024-03-22T06:54:33;11.30;99.90
20829;DHT22;10575;50.124;8.582;2024-03-22T06:56:59;11.30;99.90
20829;DHT22;10575;50.124;8.582;2024-03-22T06:59:24;11.40;99.90
20829;DHT22;10575;50.124;8.582;2024-03-22T07:01:50;11.40;99.90
20829;DHT22;10575;50.124;8.582;2024-03-22T07:04:15;11.40;99.90
20829;DHT22;10575;50.124;8.582;2024-03-22T07:06:41;11.50;99.90
20829;DHT22;10575;50.124;8.582;2024-03-22T07:09:07;11.50;99.90
20829;DHT22;10575;50.124;8.582;2024-03-22T07:11:34;11.40;99.90
20829;DHT22;10575;50.124;8.582;2024-03-22T07:13:59;11.40;99.90
20829;DHT22;10575;50.124;8.582;2024-03-22T07:16:25;11.40;99.90
20829;DHT22;10575;50.124;8.582;2024-03-22T07:18:50;11.50;99.90
20829;DHT22;10575;50.124;8.582;2024-03-22T07:21:16;11.60;99.90
20829;DHT22;10575;50.124;8.582;2024-03-22T07:23:41;11.70;99.90
20829;DHT22;10575;50.124;8.582;2024-03-22T07:26:07;11.70;99.90
20829;DHT22;10575;50.124;8.582;2024-03-22T07:28:33;11.80;99.90
20829;DHT22;10575;50.124;8.582;2024-03-22T07:30:59;11.80;99.90
20829;DHT22;10575;50.124;8.582;2024-03-22T07:33:24;11.80;99.90
20829;DHT22;10575;50.124;8.582;2024-03-22T07:35:50;11.80;99.90
20829;DHT22;10575;50.124;8.582;2024-03-22T07:38:16;11.70;99.90
20829;DHT22;10575;50.124;8.582;2024-03-22T07:40:41;11.70;99.90
20829;DHT22;10575;50.124;8.582;2024-03-22T07:43:06;11.80;99.90
20829;DHT22;10575;50.124;8.582;2024-03-22T07:45:35;11.90;99.90
20829;DHT22;10575;50.124;8.582;2024-03-22T07:48:01;11.90;99.90
20829;DHT22;10575;50.124;8.582;2024-03-22T07:50:27;12.00;99.90
20829;DHT22;10575;50.124;8.582;2024-03-22T07:52:53;12.00;99.90
20829;DHT22;10575;50.124;8.582;2024-03-22T07:55:18;12.10;99.90
20829;DHT22;10575;50.124;8.582;2024-03-22T07:57:44;12.20;99.90
20829;DHT22;10575;50.124;8.582;2024-03-22T08:00:10;12.20;99.90
20829;DHT22;10575;50.124;8.582;2024-03-22T08:02:35;12.20;99.90
20829;DHT22;10575;50.124;8.582;2024-03-22T08:05:01;12.20;99.90
20829;DHT22;10575;50.124;8.582;2024-03-22T08:07:27;12.20;99.90
20829;DHT22;10575;50.124;8.582;2024-03-22T08:09:53;12.20;99.90
20829;DHT22;10575;50.124;8.582;2024-03-22T08:12:21;12.20;99.90
20829;DHT22;10575;50.124;8.582;2024-03-22T08:14:46;12.10;99.90
20829;DHT22;10575;50.124;8.582;2024-03-22T08:17:12;12.10;99.90
20829;DHT22;10575;50.124;8.582;2024-03-22T08:19:37;12.10;99.90
20829;DHT22;10575;50.124;8.582;2024-03-22T08:22:03;12.00;99.90
20829;DHT22;10575;50.124;8.582;2024-03-22T08:24:29;12.10;99.90
20829;DHT22;10575;50.124;8.582;2024-03-22T08:26:55;12.20;99.90
20829;DHT22;10575;50.124;8.582;2024-03-22T08:29:21;12.30;99.90
20829;DHT22;10575;50.124;8.582;2024-03-22T08:31:46;12.30;99.90
20829;DHT22;10575;50.124;8.582;2024-03-22T08:34:12;12.40;99.90
20829;DHT22;10575;50.124;8.582;2024-03-22T08:36:38;12.50;99.90
20829;DHT22;10575;50.124;8.582;2024-03-22T08:39:03;12.50;99.90
20829;DHT22;10575;50.124;8.582;2024-03-22T08:41:30;12.70;99.90
20829;DHT22;10575;50.124;8.582;2024-03-22T08:43:56;12.80;99.90
20829;DHT22;10575;50.124;8.582;2024-03-22T08:46:22;12.90;99.90
20829;DHT22;10575;50.124;8.582;2024-03-22T08:48:50;12.90;99.90
20829;DHT22;10575;50.124;8.582;2024-03-22T08:51:15;13.00;99.90
20829;DHT22;10575;50.124;8.582;2024-03-22T08:53:41;13.10;99.90
20829;DHT22;10575;50.124;8.582;2024-03-22T08:56:07;13.10;99.90
20829;DHT22;10575;50.124;8.582;2024-03-22T08:58:33;13.30;99.90
20829;DHT22;10575;50.124;8.582;2024-03-22T09:00:58;13.40;99.90
20829;DHT22;10575;50.124;8.582;2024-03-22T09:03:24;13.60;99.90
20829;DHT22;10575;50.124;8.582;2024-03-22T09:05:52;13.80;99.90
20829;DHT22;10575;50.124;8.582;2024-03-22T09:08:19;13.90;99.90
20829;DHT22;10575;50.124;8.582;2024-03-22T09:10:45;14.10;99.90
20829;DHT22;10575;50.124;8.582;2024-03-22T09:13:10;14.30;99.90
20829;DHT22;10575;50.124;8.582;2024-03-22T09:15:38;14.50;99.90
20829;DHT22;10575;50.124;8.582;2024-03-22T09:18:04;14.70;99.90
20829;DHT22;10575;50.124;8.582;2024-03-22T09:20:29;15.10;99.90
20829;DHT22;10575;50.124;8.582;2024-03-22T09:22:55;15.30;99.90
20829;DHT22;10575;50.124;8.582;2024-03-22T09:25:20;15.40;99.90
20829;DHT22;10575;50.124;8.582;2024-03-22T09:27:46;15.60;99.90
20829;DHT22;10575;50.124;8.582;2024-03-22T09:30:13;15.80;99.90
20829;DHT22;10575;50.124;8.582;2024-03-22T09:32:38;16.00;99.90
20829;DHT22;10575;50.124;8.582;2024-03-22T09:35:05;16.10;99.90
20829;DHT22;10575;50.124;8.582;2024-03-22T09:37:31;16.20;99.90
20829;DHT22;10575;50.124;8.582;2024-03-22T09:39:56;16.30;99.90
20829;DHT22;10575;50.124;8.582;2024-03-22T09:42:22;16.50;99.90
20829;DHT22;10575;50.124;8.582;2024-03-22T09:44:50;16.70;99.90
20829;DHT22;10575;50.124;8.582;2024-03-22T09:47:17;16.80;99.90
20829;DHT22;10575;50.124;8.582;2024-03-22T09:49:43;16.80;99.90
20829;DHT22;10575;50.124;8.582;2024-03-22T09:52:12;16.90;99.90
20829;DHT22;10575;50.124;8.582;2024-03-22T09:54:39;16.90;99.90
20829;DHT22;10575;50.124;8.582;2024-03-22T09:57:09;16.90;99.90
20829;DHT22;10575;50.124;8.582;2024-03-22T09:59:37;17.10;99.90
20829;DHT22;10575;50.124;8.582;2024-03-22T10:02:03;17.30;99.90
20829;DHT22;10575;50.124;8.582;2024-03-22T10:04:28;17.20;99.90
20829;DHT22;10575;50.124;8.582;2024-03-22T10:06:54;17.50;99.90
20829;DHT22;10575;50.124;8.582;2024-03-22T10:09:28;17.80;99.90
20829;DHT22;10575;50.124;8.582;2024-03-22T10:11:55;17.80;99.90
20829;DHT22;10575;50.124;8.582;2024-03-22T10:14:21;17.90;99.90
20829;DHT22;10575;50.124;8.582;2024-03-22T10:16:46;18.00;99.90
20829;DHT22;10575;50.124;8.582;2024-03-22T10:19:12;17.80;99.90
20829;DHT22;10575;50.124;8.582;2024-03-22T10:21:37;17.60;99.90
20829;DHT22;10575;50.124;8.582;2024-03-22T10:24:03;17.40;99.90
20829;DHT22;10575;50.124;8.582;2024-03-22T10:26:29;17.50;99.90
20829;DHT22;10575;50.124;8.582;2024-03-22T10:28:54;17.50;99.90
20829;DHT22;10575;50.124;8.582;2024-03-22T10:31:20;17.50;99.90
20829;DHT22;10575;50.124;8.582;2024-03-22T10:33:46;17.50;99.90
20829;DHT22;10575;50.124;8.582;2024-03-22T10:36:12;17.40;99.90
20829;DHT22;10575;50.124;8.582;2024-03-22T10:38:39;17.40;99.90
20829;DHT22;10575;50.124;8.582;2024-03-22T10:41:05;17.30;99.90
20829;DHT22;10575;50.124;8.582;2024-03-22T10:43:31;17.30;99.90
20829;DHT22;10575;50.124;8.582;2024-03-22T10:46:01;17.50;99.90
20829;DHT22;10575;50.124;8.582;2024-03-22T10:48:29;17.20;99.90
20829;DHT22;10575;50.124;8.582;2024-03-22T10:50:59;17.10;99.90
20829;DHT22;10575;50.124;8.582;2024-03-22T10:53:26;17.10;99.90
20829;DHT22;10575;50.124;8.582;2024-03-22T10:55:53;17.20;99.90
20829;DHT22;10575;50.124;8.582;2024-03-22T10:58:21;17.20;99.90
20829;DHT22;10575;50.124;8.582;2024-03-22T11:00:47;17.30;99.90
20829;DHT22;10575;50.124;8.582;2024-03-22T11:03:16;17.40;99.90
20829;DHT22;10575;50.124;8.582;2024-03-22T11:05:49;17.90;99.90
20829;DHT22;10575;50.124;8.582;2024-03-22T11:08:23;18.20;99.90
20829;DHT22;10575;50.124;8.582;2024-03-22T11:10:49;18.30;99.90
20829;DHT22;10575;50.124;8.582;2024-03-22T11:13:16;18.70;99.90
20829;DHT22;10575;50.124;8.582;2024-03-22T11:15:42;18.80;99.90
20829;DHT22;10575;50.124;8.582;2024-03-22T11:18:07;19.10;99.90
20829;DHT22;10575;50.124;8.582;2024-03-22T11:20:36;19.20;99.90
20829;DHT22;10575;50.124;8.582;2024-03-22T11:23:03;19.40;99.90
20829;DHT22;10575;50.124;8.582;2024-03-22T11:25:31;19.50;99.90
20829;DHT22;10575;50.124;8.582;2024-03-22T11:27:57;19.60;99.90
20829;DHT22;10575;50.124;8.582;2024-03-22T11:30:30;19.50;99.90
20829;DHT22;10575;50.124;8.582;2024-03-22T11:32:56;19.20;99.90
20829;DHT22;10575;50.124;8.582;2024-03-22T11:35:21;19.10;99.90
20829;DHT22;10575;50.124;8.582;2024-03-22T11:37:49;19.10;99.90
20829;DHT22;10575;50.124;8.582;2024-03-22T11:40:15;19.10;99.90
20829;DHT22;10575;50.124;8.582;2024-03-22T11:42:41;19.00;99.90
20829;DHT22;10575;50.124;8.582;2024-03-22T11:45:09;19.10;99.90
20829;DHT22;10575;50.124;8.582;2024-03-22T11:47:36;19.10;99.90
20829;DHT22;10575;50.124;8.582;2024-03-22T11:50:02;19.10;99.90
20829;DHT22;10575;50.124;8.582;2024-03-22T11:52:28;18.90;99.90
20829;DHT22;10575;50.124;8.582;2024-03-22T11:54:54;18.80;99.90
20829;DHT22;10575;50.124;8.582;2024-03-22T11:57:23;18.70;99.90
20829;DHT22;10575;50.124;8.582;2024-03-22T11:59:49;18.60;99.90
20829;DHT22;10575;50.124;8.582;2024-03-22T12:02:15;18.50;99.90
20829;DHT22;10575;50.124;8.582;2024-03-22T12:04:42;18.70;99.90
20829;DHT22;10575;50.124;8.582;2024-03-22T12:07:11;18.90;99.90
20829;DHT22;10575;50.124;8.582;2024-03-22T12:09:38;18.90;99.90
20829;DHT22;10575;50.124;8.582;2024-03-22T12:12:06;18.80;99.90
20829;DHT22;10575;50.124;8.582;2024-03-22T12:14:33;18.80;99.90
20829;DHT22;10575;50.124;8.582;2024-03-22T12:16:58;18.80;99.90
20829;DHT22;10575;50.124;8.582;2024-03-22T12:19:24;18.80;99.90
20829;DHT22;10575;50.124;8.582;2024-03-22T12:21:49;18.80;99.90
20829;DHT22;10575;50.124;8.582;2024-03-22T12:24:15;18.70;99.90
20829;DHT22;10575;50.124;8.582;2024-03-22T12:26:40;18.80;99.90
20829;DHT22;10575;50.124;8.582;2024-03-22T12:29:06;18.90;99.90
20829;DHT22;10575;50.124;8.582;2024-03-22T12:31:32;19.10;99.90
20829;DHT22;10575;50.124;8.582;2024-03-22T12:33:58;19.10;99.90
20829;DHT22;10575;50.124;8.582;2024-03-22T12:36:24;19.30;99.90
20829;DHT22;10575;50.124;8.582;2024-03-22T12:38:53;19.30;99.90
20829;DHT22;10575;50.124;8.582;2024-03-22T12:41:18;19.20;99.90
20829;DHT22;10575;50.124;8.582;2024-03-22T12:43:44;19.30;99.90
20829;DHT22;10575;50.124;8.582;2024-03-22T12:46:09;19.30;99.90
20829;DHT22;10575;50.124;8.582;2024-03-22T12:48:35;19.60;99.90
20829;DHT22;10575;50.124;8.582;2024-03-22T12:51:01;19.70;99.90
20829;DHT22;10575;50.124;8.582;2024-03-22T12:53:27;19.60;99.90
20829;DHT22;10575;50.124;8.582;2024-03-22T12:55:52;19.50;99.90
20829;DHT22;10575;50.124;8.582;2024-03-22T12:58:18;19.40;99.90
20829;DHT22;10575;50.124;8.582;2024-03-22T13:00:43;19.10;99.90
20829;DHT22;10575;50.124;8.582;2024-03-22T13:03:09;19.10;99.90
20829;DHT22;10575;50.124;8.582;2024-03-22T13:05:37;19.10;99.90
20829;DHT22;10575;50.124;8.582;2024-03-22T13:08:03;19.00;99.90
20829;DHT22;10575;50.124;8.582;2024-03-22T13:10:29;18.70;99.90
20829;DHT22;10575;50.124;8.582;2024-03-22T13:12:54;18.70;99.90
20829;DHT22;10575;50.124;8.582;2024-03-22T13:15:20;18.70;99.90
20829;DHT22;10575;50.124;8.582;2024-03-22T13:17:45;18.70;99.90
20829;DHT22;10575;50.124;8.582;2024-03-22T13:20:11;18.60;99.90
20829;DHT22;10575;50.124;8.582;2024-03-22T13:22:40;18.50;99.90
20829;DHT22;10575;50.124;8.582;2024-03-22T13:25:06;18.60;99.90
20829;DHT22;10575;50.124;8.582;2024-03-22T13:27:33;18.70;99.90
20829;DHT22;10575;50.124;8.582;2024-03-22T13:30:00;18.80;99.90
20829;DHT22;10575;50.124;8.582;2024-03-22T13:32:25;18.70;99.90
20829;DHT22;10575;50.124;8.582;2024-03-22T13:34:51;18.50;99.90
20829;DHT22;10575;50.124;8.582;2024-03-22T13:37:16;18.30;99.90
20829;DHT22;10575;50.124;8.582;2024-03-22T13:39:42;18.30;99.90
20829;DHT22;10575;50.124;8.582;2024-03-22T13:42:08;18.10;99.90
20829;DHT22;10575;50.124;8.582;2024-03-22T13:44:37;18.10;99.90
20829;DHT22;10575;50.124;8.582;2024-03-22T13:47:03;18.00;99.90
20829;DHT22;10575;50.124;8.582;2024-03-22T13:49:30;17.80;99.90
20829;DHT22;10575;50.124;8.582;2024-03-22T13:51:58;17.70;99.90
20829;DHT22;10575;50.124;8.582;2024-03-22T13:54:24;17.60;99.90
20829;DHT22;10575;50.124;8.582;2024-03-22T13:56:51;17.70;99.90
20829;DHT22;10575;50.124;8.582;2024-03-22T13:59:17;17.70;99.90
20829;DHT22;10575;50.124;8.582;2024-03-22T14:01:42;17.80;99.90
20829;DHT22;10575;50.124;8.582;2024-03-22T14:04:11;17.80;99.90
20829;DHT22;10575;50.124;8.582;2024-03-22T14:06:37;17.60;99.90
20829;DHT22;10575;50.124;8.582;2024-03-22T14:09:03;17.60;99.90
20829;DHT22;10575;50.124;8.582;2024-03-22T14:11:30;17.70;99.90
20829;DHT22;10575;50.124;8.582;2024-03-22T14:13:59;17.90;99.90
20829;DHT22;10575;50.124;8.582;2024-03-22T14:16:25;17.80;99.90
20829;DHT22;10575;50.124;8.582;2024-03-22T14:18:51;17.80;99.90
20829;DHT22;10575;50.124;8.582;2024-03-22T14:21:20;17.80;99.90
20829;DHT22;10575;50.124;8.582;2024-03-22T14:23:49;17.70;99.90
20829;DHT22;10575;50.124;8.582;2024-03-22T14:26:18;17.70;99.90
20829;DHT22;10575;50.124;8.582;2024-03-22T14:28:44;17.60;99.90
20829;DHT22;10575;50.124;8.582;2024-03-22T14:31:10;17.50;99.90
20829;DHT22;10575;50.124;8.582;2024-03-22T14:33:36;17.50;99.90
20829;DHT22;10575;50.124;8.582;2024-03-22T14:36:06;17.50;99.90
20829;DHT22;10575;50.124;8.582;2024-03-22T14:38:32;17.50;99.90
20829;DHT22;10575;50.124;8.582;2024-03-22T14:40:58;17.40;99.90
20829;DHT22;10575;50.124;8.582;2024-03-22T14:43:24;17.40;99.90
20829;DHT22;10575;50.124;8.582;2024-03-22T14:45:51;17.30;99.90
20829;DHT22;10575;50.124;8.582;2024-03-22T14:48:23;17.30;99.90
20829;DHT22;10575;50.124;8.582;2024-03-22T14:50:49;17.30;99.90
20829;DHT22;10575;50.124;8.582;2024-03-22T14:53:16;17.50;99.90
20829;DHT22;10575;50.124;8.582;2024-03-22T14:56:03;17.50;99.90
20829;DHT22;10575;50.124;8.582;2024-03-22T14:58:36;17.70;99.90
20829;DHT22;10575;50.124;8.582;2024-03-22T15:01:03;17.80;99.90
20829;DHT22;10575;50.124;8.582;2024-03-22T15:03:30;17.80;99.90
20829;DHT22;10575;50.124;8.582;2024-03-22T15:05:57;17.90;99.90
20829;DHT22;10575;50.124;8.582;2024-03-22T15:08:25;17.90;99.90
20829;DHT22;10575;50.124;8.582;2024-03-22T15:10:51;18.00;99.90
20829;DHT22;10575;50.124;8.582;2024-03-22T15:13:18;18.00;99.90
20829;DHT22;10575;50.124;8.582;2024-03-22T15:15:52;18.00;99.90
20829;DHT22;10575;50.124;8.582;2024-03-22T15:18:18;17.90;99.90
20829;DHT22;10575;50.124;8.582;2024-03-22T15:20:44;18.00;99.90
20829;DHT22;10575;50.124;8.582;2024-03-22T15:23:09;18.10;99.90
20829;DHT22;10575;50.124;8.582;2024-03-22T15:25:35;18.00;99.90
20829;DHT22;10575;50.124;8.582;2024-03-22T15:28:00;18.00;99.90
20829;DHT22;10575;50.124;8.582;2024-03-22T15:30:26;18.00;99.90